Sao Carlos, Brazil
Current Conditions -  °F | °C
As of 7:00 PM on Monday 20 Oct 2014 (Local Time) from SBAQ Reporting Station
Broken Clouds Broken Clouds  
Wind Chill: 79°   Ceiling: 10000
Heat Index: 81°   Visibility: 6mi
Dew Point: 66°   Wind: 7mph
Humidity: 65%   Direction: 180°S
Pressure: 30.03"   Gusts: NA
Location:  22.02°S, 47.89°W
Report Text: SBAQ 202200Z 18006KT 9999 SCT030 BKN100 26/19 Q1017
Loading
Personal Weather Stations






























Interactive Weather Map
Tropical Storm Tracking
New forecast layout! Learn more

10-Day Weather Forecast

Advertisements
Track Severe Weather on mobile